Time;durP1;ratioP1;P1;durP2;ratioP2;P2;SDS_P1;SDS_P2;PMS_P1;PMS_P2;Temp;Humidity;BMP_temperature;BMP_pressure;BME280_temperature;BME280_humidity;BME280_pressure;Samples;Min_cycle;Max_cycle;Signal;HPM_P1;HPM_P2
2023/03/27 00:00:55;;;;;;;2.72;1.23;;;16.30;53.10;;;;;;5051648;28;20514;-62
2023/03/27 00:03:20;;;;;;;2.92;1.30;;;16.30;53.10;;;;;;5051645;28;20176;-62
2023/03/27 00:05:46;;;;;;;4.15;1.98;;;16.30;53.10;;;;;;5050664;28;20653;-62
2023/03/27 00:08:14;;;;;;;1.25;1.00;;;16.20;53.00;;;;;;5051568;28;20255;-61
2023/03/27 00:10:40;;;;;;;2.67;1.30;;;16.20;53.00;;;;;;5051480;28;20182;-61
2023/03/27 00:13:07;;;;;;;2.50;1.20;;;16.20;53.00;;;;;;5050454;28;20665;-62
2023/03/27 00:15:33;;;;;;;3.85;1.50;;;16.20;53.00;;;;;;5051522;28;20195;-61
2023/03/27 00:18:02;;;;;;;2.05;1.05;;;16.20;53.00;;;;;;5051275;28;20171;-61
2023/03/27 00:20:28;;;;;;;3.05;1.90;;;16.20;52.90;;;;;;5050675;28;20231;-61
2023/03/27 00:22:55;;;;;;;3.58;1.25;;;16.20;52.90;;;;;;5051167;28;20333;-61
2023/03/27 00:25:25;;;;;;;3.17;1.20;;;16.10;52.90;;;;;;5054238;28;20171;-61
2023/03/27 00:27:52;;;;;;;3.63;1.17;;;16.10;52.80;;;;;;5054218;28;20174;-62
2023/03/27 00:30:18;;;;;;;3.67;1.50;;;16.10;52.80;;;;;;5055093;28;20186;-62
2023/03/27 00:32:45;;;;;;;3.78;1.42;;;16.10;52.80;;;;;;5053960;28;20187;-63
2023/03/27 00:35:11;;;;;;;2.83;1.38;;;16.10;52.80;;;;;;5054504;28;20238;-62
2023/03/27 00:37:36;;;;;;;2.72;1.30;;;16.10;52.80;;;;;;5054720;28;20210;-61
2023/03/27 00:40:06;;;;;;;3.90;1.40;;;16.10;52.80;;;;;;5053995;28;20182;-61
2023/03/27 00:42:32;;;;;;;2.33;1.20;;;16.10;52.80;;;;;;5055007;28;20551;-62
2023/03/27 00:44:58;;;;;;;3.92;1.27;;;16.00;52.80;;;;;;5054431;28;20190;-62
2023/03/27 00:47:44;;;;;;;3.53;1.27;;;16.10;52.90;;;;;;5053895;28;20174;-61
2023/03/27 00:50:13;;;;;;;2.95;1.30;;;16.00;52.80;;;;;;5053573;28;20179;-61
2023/03/27 00:52:40;;;;;;;3.35;1.50;;;16.00;52.80;;;;;;5037146;28;20185;-61
2023/03/27 00:55:13;;;;;;;1.98;1.10;;;16.00;52.80;;;;;;5052263;28;20754;-61
2023/03/27 00:57:39;;;;;;;2.10;0.90;;;16.00;52.70;;;;;;5036926;28;20179;-62
2023/03/27 01:00:12;;;;;;;3.42;1.30;;;16.00;53.40;;;;;;5036459;28;20207;-62
2023/03/27 01:02:41;;;;;;;3.17;1.40;;;16.00;52.60;;;;;;5052681;28;20638;-63
2023/03/27 01:05:08;;;;;;;3.85;1.40;;;16.00;52.60;;;;;;5054348;28;20270;-62
2023/03/27 01:07:33;;;;;;;3.20;1.23;;;15.90;52.50;;;;;;5053078;28;20187;-61
2023/03/27 01:09:59;;;;;;;5.95;1.80;;;16.00;52.60;;;;;;5053134;28;20174;-61
2023/03/27 01:12:35;;;;;;;5.35;1.20;;;16.00;52.60;;;;;;5036400;28;20741;-61
2023/03/27 01:15:17;;;;;;;2.00;1.20;;;16.00;52.60;;;;;;5051721;28;20303;-62
2023/03/27 01:18:02;;;;;;;3.85;1.17;;;16.00;52.50;;;;;;5052817;28;20248;-61
2023/03/27 01:20:44;;;;;;;2.80;1.13;;;15.90;52.50;;;;;;5037680;28;20230;-61
2023/03/27 01:23:40;;;;;;;2.47;1.23;;;15.90;52.50;;;;;;5051994;28;20316;-61
2023/03/27 01:26:43;;;;;;;3.40;1.25;;;15.90;52.50;;;;;;5053740;28;20262;-61
2023/03/27 01:29:20;;;;;;;3.30;1.20;;;15.90;52.50;;;;;;5053210;28;20215;-62
2023/03/27 01:32:19;;;;;;;5.20;1.45;;;15.90;52.50;;;;;;5053701;28;20182;-62
2023/03/27 01:35:01;;;;;;;3.38;1.00;;;15.90;52.50;;;;;;5053096;28;20219;-62
2023/03/27 01:37:46;;;;;;;4.03;1.63;;;15.90;52.40;;;;;;5051177;28;20171;-61
2023/03/27 01:40:18;;;;;;;3.28;1.30;;;15.80;52.70;;;;;;5038571;28;20171;-61
2023/03/27 01:42:47;;;;;;;2.75;1.00;;;15.80;52.60;;;;;;5053484;28;20171;-61
2023/03/27 01:45:19;;;;;;;3.88;1.25;;;15.80;52.40;;;;;;5035425;28;20175;-61
2023/03/27 01:47:51;;;;;;;4.30;1.30;;;15.80;53.00;;;;;;5053391;28;20171;-61
2023/03/27 01:50:30;;;;;;;3.00;1.13;;;15.80;52.50;;;;;;5051727;28;20225;-61
2023/03/27 01:53:02;;;;;;;2.00;1.13;;;15.80;52.60;;;;;;5053501;28;20598;-62
2023/03/27 01:55:30;;;;;;;4.35;1.40;;;15.80;52.70;;;;;;5035961;28;20214;-62
2023/03/27 01:58:03;;;;;;;2.80;1.55;;;15.80;52.60;;;;;;5034892;28;20660;-62
2023/03/27 02:00:29;;;;;;;3.25;1.38;;;15.80;52.90;;;;;;5052242;28;20175;-62
2023/03/27 02:03:21;;;;;;;2.97;1.13;;;15.70;52.70;;;;;;5035219;28;20202;-62
2023/03/27 02:05:52;;;;;;;3.70;1.15;;;15.70;52.70;;;;;;5049285;28;20190;-62
2023/03/27 02:08:45;;;;;;;2.85;1.27;;;15.70;52.50;;;;;;5035676;28;20175;-61
2023/03/27 02:11:11;;;;;;;2.28;1.00;;;15.70;52.70;;;;;;5036300;28;20278;-61
2023/03/27 02:13:42;;;;;;;2.10;1.17;;;15.70;52.70;;;;;;5053256;28;20286;-61
2023/03/27 02:16:09;;;;;;;2.42;1.13;;;15.70;52.60;;;;;;5052144;28;20266;-61
2023/03/27 02:18:37;;;;;;;2.97;1.05;;;15.70;53.20;;;;;;5051309;28;20182;-61
2023/03/27 02:21:03;;;;;;;2.28;1.05;;;15.70;53.00;;;;;;5051451;28;20239;-60
2023/03/27 02:23:29;;;;;;;2.58;1.20;;;15.60;52.80;;;;;;5051687;28;20178;-61
2023/03/27 02:25:55;;;;;;;2.47;1.08;;;15.70;53.20;;;;;;5052012;28;20175;-61
2023/03/27 02:28:33;;;;;;;3.35;1.50;;;15.60;53.30;;;;;;5052844;28;20206;-61
2023/03/27 02:31:11;;;;;;;3.30;1.05;;;15.60;53.00;;;;;;5052872;28;20232;-62
2023/03/27 02:34:03;;;;;;;3.13;1.13;;;15.60;53.20;;;;;;5051979;28;20653;-63
2023/03/27 02:36:47;;;;;;;3.10;1.30;;;15.60;53.20;;;;;;5051643;28;20545;-61
2023/03/27 02:39:21;;;;;;;1.23;0.90;;;15.60;53.00;;;;;;5052276;28;20205;-61
2023/03/27 02:41:51;;;;;;;2.63;1.20;;;15.60;53.20;;;;;;5051292;28;20163;-61
2023/03/27 02:44:51;;;;;;;4.43;1.00;;;15.60;53.30;;;;;;5035038;28;20190;-61
2023/03/27 02:47:27;;;;;;;3.47;1.30;;;15.60;53.40;;;;;;5050587;28;20179;-62
2023/03/27 02:49:57;;;;;;;3.80;1.20;;;15.60;53.30;;;;;;5051132;28;20175;-61
2023/03/27 02:52:34;;;;;;;4.18;1.40;;;15.60;53.30;;;;;;5035162;28;20254;-61
2023/03/27 02:55:09;;;;;;;2.88;1.00;;;15.50;53.10;;;;;;5050196;28;20210;-61
2023/03/27 02:57:39;;;;;;;2.25;1.30;;;15.50;53.30;;;;;;5035488;28;20183;-62
2023/03/27 03:00:11;;;;;;;4.13;1.35;;;15.50;53.30;;;;;;5052220;28;20201;-62
2023/03/27 03:02:37;;;;;;;2.58;1.20;;;15.50;53.00;;;;;;5035425;28;20167;-62
2023/03/27 03:05:11;;;;;;;2.60;1.00;;;15.50;53.10;;;;;;5034368;28;20684;-62
2023/03/27 03:07:37;;;;;;;3.20;1.20;;;15.50;52.90;;;;;;5050661;28;20205;-61
2023/03/27 03:10:04;;;;;;;2.65;1.10;;;15.50;52.80;;;;;;5052303;28;20198;-61
2023/03/27 03:12:30;;;;;;;2.58;1.40;;;15.50;52.80;;;;;;5051066;28;20174;-61
2023/03/27 03:14:55;;;;;;;3.35;1.13;;;15.50;53.00;;;;;;5051316;28;20214;-61
2023/03/27 03:17:21;;;;;;;2.15;1.15;;;15.40;52.80;;;;;;5052242;28;20163;-61
2023/03/27 03:19:47;;;;;;;3.35;1.23;;;15.50;52.90;;;;;;5051674;28;20217;-61
2023/03/27 03:22:13;;;;;;;1.52;0.90;;;15.40;52.70;;;;;;5051440;28;20520;-61
2023/03/27 03:24:40;;;;;;;2.55;1.00;;;15.50;52.80;;;;;;5052369;28;20178;-61
2023/03/27 03:27:07;;;;;;;4.00;1.40;;;15.40;52.80;;;;;;5051920;28;20673;-61
2023/03/27 03:29:35;;;;;;;2.85;1.00;;;15.40;53.30;;;;;;5051558;28;20538;-62
2023/03/27 03:32:02;;;;;;;2.42;1.40;;;15.40;52.90;;;;;;5051885;28;20259;-62
2023/03/27 03:34:29;;;;;;;2.55;1.10;;;15.40;53.00;;;;;;5052027;28;20305;-62
2023/03/27 03:36:54;;;;;;;2.13;1.45;;;15.40;53.20;;;;;;5051311;28;20586;-61
2023/03/27 03:39:20;;;;;;;1.58;1.10;;;15.40;53.10;;;;;;5051955;28;20693;-61
2023/03/27 03:41:46;;;;;;;2.58;1.10;;;15.40;53.30;;;;;;5051560;28;20292;-61
2023/03/27 03:44:11;;;;;;;1.98;1.10;;;15.30;53.20;;;;;;5051083;28;20227;-61
2023/03/27 03:46:37;;;;;;;3.72;1.15;;;15.40;53.00;;;;;;5051869;28;20559;-61
2023/03/27 03:49:05;;;;;;;3.00;1.27;;;15.40;53.30;;;;;;5051394;28;20529;-61
2023/03/27 03:51:34;;;;;;;3.15;1.42;;;15.40;53.30;;;;;;5050969;28;20236;-61
2023/03/27 03:54:04;;;;;;;2.67;1.20;;;15.30;53.30;;;;;;5051501;28;20297;-61
2023/03/27 03:56:30;;;;;;;3.80;1.00;;;15.30;53.40;;;;;;5051063;28;20183;-61
2023/03/27 03:58:56;;;;;;;2.10;1.00;;;15.40;53.40;;;;;;5052297;28;20610;-62
2023/03/27 04:01:21;;;;;;;2.10;0.95;;;15.30;53.50;;;;;;5055410;28;20179;-61
2023/03/27 04:03:47;;;;;;;3.25;1.08;;;15.40;53.70;;;;;;5054715;28;20707;-62
2023/03/27 04:06:16;;;;;;;2.60;1.10;;;15.40;53.60;;;;;;5055929;28;20175;-61
2023/03/27 04:08:42;;;;;;;1.38;0.75;;;15.40;53.70;;;;;;5055237;28;20182;-61
2023/03/27 04:11:08;;;;;;;3.15;0.98;;;15.30;53.60;;;;;;5054806;28;20175;-61
2023/03/27 04:13:33;;;;;;;3.70;1.10;;;15.40;53.60;;;;;;5055209;28;20198;-60
2023/03/27 04:16:00;;;;;;;1.88;1.08;;;15.30;53.50;;;;;;5055091;28;20607;-61
2023/03/27 04:18:29;;;;;;;1.45;1.08;;;15.30;53.60;;;;;;5054772;28;20244;-61
2023/03/27 04:20:57;;;;;;;1.48;0.98;;;15.30;53.70;;;;;;5054660;28;20508;-60
2023/03/27 04:23:29;;;;;;;2.17;1.05;;;15.30;53.60;;;;;;5055313;28;20179;-61
2023/03/27 04:25:58;;;;;;;2.33;0.88;;;15.30;53.60;;;;;;5054131;28;20186;-61
2023/03/27 04:28:34;;;;;;;1.65;0.80;;;15.30;53.60;;;;;;5055138;28;20203;-61
2023/03/27 04:31:05;;;;;;;3.97;1.17;;;15.30;53.70;;;;;;5054972;28;20261;-62
2023/03/27 04:33:38;;;;;;;1.25;0.90;;;15.30;53.80;;;;;;5054333;28;20221;-63
2023/03/27 04:36:05;;;;;;;1.65;0.80;;;15.30;53.80;;;;;;5054761;28;20443;-62
2023/03/27 04:38:31;;;;;;;3.20;0.70;;;15.30;53.80;;;;;;5054865;28;20178;-62
2023/03/27 04:40:57;;;;;;;1.85;0.85;;;15.30;53.80;;;;;;5053855;28;20183;-61
2023/03/27 04:43:25;;;;;;;1.75;0.93;;;15.20;53.80;;;;;;5054658;28;20167;-62
2023/03/27 04:45:52;;;;;;;1.88;1.00;;;15.30;53.80;;;;;;5053936;28;20259;-62
2023/03/27 04:48:18;;;;;;;1.55;0.75;;;15.30;53.90;;;;;;5054914;28;20202;-61
2023/03/27 04:50:48;;;;;;;1.77;0.82;;;15.30;53.90;;;;;;5054404;28;20191;-62
2023/03/27 04:53:14;;;;;;;1.00;0.68;;;15.30;53.90;;;;;;5036928;28;20191;-62
2023/03/27 04:55:39;;;;;;;1.48;0.90;;;15.30;53.90;;;;;;5054451;28;20214;-61
2023/03/27 04:58:05;;;;;;;1.25;0.80;;;15.20;53.90;;;;;;5054449;28;20178;-63
2023/03/27 05:00:31;;;;;;;1.50;0.77;;;15.20;53.80;;;;;;5053866;28;20202;-62
2023/03/27 05:02:56;;;;;;;1.38;0.90;;;15.20;53.80;;;;;;5054333;28;20527;-62
2023/03/27 05:05:22;;;;;;;1.90;0.90;;;15.20;53.80;;;;;;5054439;28;20707;-62
2023/03/27 05:07:48;;;;;;;1.05;0.85;;;15.20;53.80;;;;;;5053320;28;20262;-62
2023/03/27 05:10:16;;;;;;;0.55;0.55;;;15.20;53.80;;;;;;5053984;28;20220;-62
2023/03/27 05:12:43;;;;;;;2.28;1.05;;;15.20;53.80;;;;;;5054448;28;20180;-61
2023/03/27 05:15:09;;;;;;;1.80;0.65;;;15.20;53.80;;;;;;5053319;28;20226;-62
2023/03/27 05:17:39;;;;;;;1.67;1.00;;;15.20;53.90;;;;;;5054191;28;20622;-61
2023/03/27 05:20:07;;;;;;;2.80;0.80;;;15.20;53.90;;;;;;5052280;28;20227;-61
2023/03/27 05:22:32;;;;;;;1.23;0.77;;;15.20;53.90;;;;;;5053278;28;20551;-61
2023/03/27 05:24:58;;;;;;;2.22;0.95;;;15.20;53.90;;;;;;5053725;28;20178;-61
2023/03/27 05:27:24;;;;;;;1.48;0.88;;;15.10;53.90;;;;;;5054160;28;20175;-62
2023/03/27 05:29:49;;;;;;;1.75;0.65;;;15.20;54.10;;;;;;5053163;28;20265;-62
2023/03/27 05:32:15;;;;;;;1.92;0.63;;;15.20;53.90;;;;;;5053915;28;20582;-62
2023/03/27 05:34:41;;;;;;;1.50;0.60;;;15.20;53.90;;;;;;5053763;28;20673;-62
2023/03/27 05:37:06;;;;;;;1.10;0.65;;;15.20;53.80;;;;;;5052861;28;20254;-62
2023/03/27 05:39:32;;;;;;;0.68;0.60;;;15.30;53.80;;;;;;5053614;28;20324;-61
2023/03/27 05:41:57;;;;;;;0.60;0.60;;;15.30;53.80;;;;;;5053401;28;20171;-62
2023/03/27 05:44:24;;;;;;;1.13;0.65;;;15.20;53.80;;;;;;5053386;28;20332;-61
2023/03/27 05:46:49;;;;;;;1.30;0.60;;;15.30;53.80;;;;;;5053276;28;20180;-61
2023/03/27 05:49:15;;;;;;;1.75;0.80;;;15.30;53.80;;;;;;5052837;28;20545;-61
2023/03/27 05:51:41;;;;;;;0.50;0.50;;;15.30;53.80;;;;;;5053672;28;20247;-61
2023/03/27 05:54:06;;;;;;;1.77;0.60;;;15.20;53.80;;;;;;5053087;28;20210;-60
2023/03/27 05:56:32;;;;;;;0.45;0.45;;;15.30;53.90;;;;;;5052775;28;20254;-62
2023/03/27 05:58:57;;;;;;;1.33;0.70;;;15.30;53.80;;;;;;5053025;28;20175;-63
2023/03/27 06:01:23;;;;;;;0.90;0.60;;;15.30;53.80;;;;;;5053459;28;20179;-63
2023/03/27 06:03:53;;;;;;;0.77;0.50;;;15.40;53.60;;;;;;5052374;28;20475;-62
2023/03/27 06:06:19;;;;;;;1.65;0.50;;;15.50;53.40;;;;;;5053099;28;20179;-61
2023/03/27 06:08:45;;;;;;;0.50;0.50;;;15.60;53.30;;;;;;5052746;28;20541;-61
2023/03/27 06:11:10;;;;;;;1.08;0.55;;;15.70;53.10;;;;;;5052619;28;20312;-61
2023/03/27 06:13:36;;;;;;;0.75;0.47;;;15.90;53.00;;;;;;5053094;28;20607;-61
2023/03/27 06:16:04;;;;;;;0.95;0.60;;;16.10;52.60;;;;;;5052652;28;20183;-61
2023/03/27 06:18:30;;;;;;;0.88;0.50;;;16.30;52.40;;;;;;5052254;28;20649;-61
2023/03/27 06:20:56;;;;;;;1.17;0.50;;;16.50;52.20;;;;;;5052339;28;20226;-61
2023/03/27 06:23:22;;;;;;;0.52;0.52;;;16.60;51.80;;;;;;5052356;28;20266;-61
2023/03/27 06:25:47;;;;;;;1.13;0.52;;;16.80;51.60;;;;;;5052035;28;20266;-62
2023/03/27 06:28:13;;;;;;;0.57;0.40;;;16.90;51.40;;;;;;5052957;28;20183;-62
2023/03/27 06:30:38;;;;;;;0.82;0.32;;;17.00;51.30;;;;;;5052850;28;20301;-63
2023/03/27 06:33:04;;;;;;;0.82;0.50;;;17.10;51.20;;;;;;5051679;28;20167;-63
2023/03/27 06:35:30;;;;;;;0.32;0.32;;;17.20;51.20;;;;;;5052397;28;20632;-63
2023/03/27 06:37:57;;;;;;;1.30;0.50;;;17.20;51.10;;;;;;5052202;28;20255;-63
2023/03/27 06:40:24;;;;;;;0.85;0.40;;;17.20;51.20;;;;;;5052222;28;20543;-62
2023/03/27 06:43:04;;;;;;;1.10;0.40;;;17.30;51.10;;;;;;5052403;28;20174;-63
2023/03/27 06:45:36;;;;;;;0.75;0.50;;;17.30;51.30;;;;;;5051897;28;20309;-62
2023/03/27 06:48:02;;;;;;;0.50;0.50;;;17.40;51.30;;;;;;5052241;28;20190;-63
2023/03/27 06:50:29;;;;;;;0.68;0.45;;;17.20;51.30;;;;;;5052692;28;20174;-62
2023/03/27 06:52:54;;;;;;;0.60;0.50;;;17.20;51.40;;;;;;5051462;28;20179;-62
2023/03/27 06:55:21;;;;;;;0.45;0.45;;;17.20;51.50;;;;;;5052409;28;20210;-62
2023/03/27 06:57:48;;;;;;;0.52;0.40;;;17.20;51.50;;;;;;5052081;28;20509;-64
2023/03/27 07:00:17;;;;;;;0.50;0.47;;;17.20;51.50;;;;;;5051703;28;20263;-63
2023/03/27 07:02:46;;;;;;;0.52;0.40;;;17.20;51.60;;;;;;5051895;28;20182;-63
2023/03/27 07:05:13;;;;;;;1.10;0.50;;;17.10;51.80;;;;;;5052464;28;20179;-63
2023/03/27 07:07:38;;;;;;;0.60;0.50;;;17.10;51.90;;;;;;5051721;28;20197;-62
2023/03/27 07:10:05;;;;;;;0.52;0.40;;;17.10;51.90;;;;;;5052061;28;20258;-62
2023/03/27 07:12:30;;;;;;;1.17;0.50;;;17.10;51.90;;;;;;5052172;28;20183;-62
2023/03/27 07:14:56;;;;;;;0.70;0.43;;;17.20;51.90;;;;;;5051150;28;20199;-62
2023/03/27 07:17:21;;;;;;;0.77;0.60;;;17.20;51.90;;;;;;5051766;28;20202;-62
2023/03/27 07:19:47;;;;;;;1.35;0.70;;;17.30;51.90;;;;;;5051685;28;20570;-63
2023/03/27 07:22:12;;;;;;;0.75;0.60;;;17.30;51.90;;;;;;5051463;28;20171;-63
2023/03/27 07:24:39;;;;;;;2.35;0.50;;;17.40;51.90;;;;;;5051618;28;20642;-64
2023/03/27 07:27:06;;;;;;;0.90;0.60;;;17.40;51.90;;;;;;5051908;28;20179;-64
2023/03/27 07:29:32;;;;;;;2.35;0.60;;;17.30;52.20;;;;;;5050400;28;20236;-65
2023/03/27 07:31:57;;;;;;;2.80;0.50;;;17.30;52.40;;;;;;5050668;28;20175;-64
2023/03/27 07:34:23;;;;;;;1.85;0.60;;;17.20;52.60;;;;;;5054343;28;20218;-64
2023/03/27 07:36:49;;;;;;;1.42;0.50;;;17.10;52.80;;;;;;5054232;28;20178;-63
2023/03/27 07:39:15;;;;;;;1.80;0.60;;;17.10;53.00;;;;;;5055016;28;20175;-64
2023/03/27 07:41:41;;;;;;;2.78;0.77;;;17.10;53.20;;;;;;5054420;28;20218;-64
2023/03/27 07:44:07;;;;;;;0.82;0.55;;;17.10;53.30;;;;;;5055512;28;20260;-64
2023/03/27 07:46:32;;;;;;;0.70;0.50;;;17.00;53.30;;;;;;5056070;28;20179;-64
2023/03/27 07:48:58;;;;;;;1.17;0.60;;;16.90;53.40;;;;;;5055037;28;20233;-63
2023/03/27 07:51:23;;;;;;;2.75;0.85;;;16.90;53.60;;;;;;5055773;28;20229;-64
2023/03/27 07:53:53;;;;;;;1.35;0.57;;;16.80;53.70;;;;;;5055505;28;20354;-63
2023/03/27 07:56:20;;;;;;;0.93;0.60;;;16.80;53.80;;;;;;5055164;28;20191;-64
2023/03/27 07:58:46;;;;;;;1.73;0.95;;;16.70;53.80;;;;;;5055469;28;20194;-65
2023/03/27 08:01:12;;;;;;;0.63;0.50;;;16.70;54.00;;;;;;5055601;28;20207;-64
2023/03/27 08:03:37;;;;;;;1.15;0.70;;;16.60;54.10;;;;;;5054860;28;20217;-64
2023/03/27 08:06:03;;;;;;;1.70;1.00;;;16.70;54.20;;;;;;5055367;28;20257;-63
2023/03/27 08:08:29;;;;;;;1.92;1.00;;;16.60;54.20;;;;;;5055638;28;20264;-64
2023/03/27 08:10:55;;;;;;;1.88;0.80;;;16.60;54.20;;;;;;5054603;28;20199;-63
2023/03/27 08:13:21;;;;;;;1.98;0.73;;;16.60;54.20;;;;;;5055393;28;20546;-63
2023/03/27 08:15:47;;;;;;;0.90;0.60;;;16.60;54.20;;;;;;5054976;28;20736;-63
2023/03/27 08:18:12;;;;;;;2.58;0.70;;;16.60;54.20;;;;;;5054702;28;20626;-63
2023/03/27 08:20:38;;;;;;;1.75;0.60;;;16.60;54.10;;;;;;5055120;28;20233;-63
2023/03/27 08:23:03;;;;;;;3.40;0.68;;;16.70;54.00;;;;;;5055097;28;20186;-63
2023/03/27 08:25:31;;;;;;;5.18;0.70;;;16.60;54.70;;;;;;5054670;28;20195;-63
2023/03/27 08:27:58;;;;;;;0.93;0.73;;;16.60;54.80;;;;;;5054887;28;20179;-63
2023/03/27 08:30:24;;;;;;;1.15;0.80;;;16.70;54.20;;;;;;5055041;28;20214;-65
2023/03/27 08:32:50;;;;;;;2.25;1.05;;;16.80;54.10;;;;;;5054198;28;20199;-65
2023/03/27 08:35:16;;;;;;;1.20;0.65;;;16.80;53.90;;;;;;5054908;28;20219;-65
2023/03/27 08:37:42;;;;;;;1.63;0.50;;;16.90;53.90;;;;;;5054813;28;20175;-64
2023/03/27 08:40:29;;;;;;;1.15;0.75;;;17.00;53.80;;;;;;5054085;28;20262;-63
2023/03/27 08:43:01;;;;;;;1.35;0.80;;;17.00;53.80;;;;;;5054585;28;20190;-64
2023/03/27 08:45:48;;;;;;;1.58;0.90;;;17.00;53.80;;;;;;5035940;28;20232;-64
2023/03/27 08:48:16;;;;;;;1.50;0.60;;;17.00;53.80;;;;;;5053847;28;20186;-64
2023/03/27 08:51:11;;;;;;;2.00;0.80;;;17.10;53.90;;;;;;5053296;28;20540;-63
2023/03/27 08:53:52;;;;;;;1.80;0.70;;;17.00;54.00;;;;;;5053047;28;20187;-63
2023/03/27 08:56:17;;;;;;;2.10;0.70;;;16.90;54.20;;;;;;5037065;28;20244;-63
2023/03/27 08:58:43;;;;;;;1.85;0.82;;;16.80;54.30;;;;;;5052958;28;20657;-64
2023/03/27 09:01:21;;;;;;;1.90;0.80;;;16.80;54.20;;;;;;5053850;28;20255;-64
2023/03/27 09:03:52;;;;;;;1.20;0.65;;;16.70;54.20;;;;;;5054078;28;20163;-64
2023/03/27 09:06:33;;;;;;;0.85;0.50;;;16.70;54.30;;;;;;5053901;28;20179;-63
2023/03/27 09:09:18;;;;;;;1.13;0.60;;;16.60;54.40;;;;;;5052935;28;20171;-64
2023/03/27 09:12:01;;;;;;;2.90;0.80;;;16.50;54.50;;;;;;5052638;28;20190;-64
2023/03/27 09:14:34;;;;;;;1.38;0.80;;;16.60;54.50;;;;;;5052569;28;20250;-63
2023/03/27 09:17:05;;;;;;;1.33;0.85;;;16.60;54.30;;;;;;5037011;28;20171;-63
2023/03/27 09:19:43;;;;;;;1.23;0.75;;;16.70;54.30;;;;;;5036687;28;20249;-63
2023/03/27 09:22:49;;;;;;;1.48;0.95;;;16.70;54.20;;;;;;5053408;28;20186;-62
2023/03/27 09:25:25;;;;;;;1.58;0.82;;;16.80;54.20;;;;;;5020596;28;20207;-62
2023/03/27 09:27:51;;;;;;;1.27;0.60;;;16.80;54.10;;;;;;5046369;28;20615;-64
2023/03/27 09:30:18;;;;;;;0.82;0.70;;;16.90;54.20;;;;;;5053592;28;20678;-65
2023/03/27 09:32:48;;;;;;;1.25;0.70;;;16.90;54.20;;;;;;5052047;28;20175;-65
2023/03/27 09:35:14;;;;;;;4.05;0.70;;;16.90;54.20;;;;;;5051328;28;20288;-61
2023/03/27 09:37:41;;;;;;;2.75;0.80;;;16.90;54.10;;;;;;5050929;28;20172;-61
2023/03/27 09:40:17;;;;;;;3.90;0.95;;;17.00;54.10;;;;;;5052567;28;20179;-61
2023/03/27 09:42:43;;;;;;;0.80;0.50;;;17.00;54.00;;;;;;5048270;28;20183;-61
2023/03/27 09:45:10;;;;;;;3.22;0.77;;;17.10;54.70;;;;;;5051926;28;20167;-62
2023/03/27 09:47:54;;;;;;;2.28;0.75;;;17.10;54.00;;;;;;5052085;28;20167;-62
2023/03/27 09:50:24;;;;;;;1.45;0.80;;;17.20;54.00;;;;;;5050932;28;20228;-62
2023/03/27 09:52:51;;;;;;;1.52;0.77;;;17.20;53.90;;;;;;5052729;28;20175;-62
2023/03/27 09:55:23;;;;;;;2.85;0.80;;;17.40;53.90;;;;;;5052180;28;20528;-63
2023/03/27 09:57:48;;;;;;;1.75;0.80;;;17.20;53.90;;;;;;5049513;28;20207;-63
2023/03/27 10:00:32;;;;;;;1.63;0.68;;;17.10;54.20;;;;;;5053263;28;20256;-63
2023/03/27 10:03:06;;;;;;;1.52;0.65;;;16.90;54.40;;;;;;5051194;28;20171;-63
2023/03/27 10:05:32;;;;;;;1.65;0.90;;;16.90;54.60;;;;;;5053433;28;20174;-63
2023/03/27 10:07:58;;;;;;;2.47;1.08;;;16.80;54.60;;;;;;5052849;28;20183;-65
2023/03/27 10:10:26;;;;;;;3.20;1.17;;;16.80;54.70;;;;;;5051139;28;20188;-65
2023/03/27 10:12:56;;;;;;;2.80;0.77;;;16.90;54.80;;;;;;5052840;28;20637;-65
2023/03/27 10:15:37;;;;;;;2.20;0.77;;;16.80;54.80;;;;;;5051830;28;20218;-63
2023/03/27 10:18:20;;;;;;;4.13;0.60;;;16.80;54.80;;;;;;5051911;28;20175;-62
2023/03/27 10:20:50;;;;;;;2.05;0.75;;;16.90;54.60;;;;;;5051405;28;20269;-63
2023/03/27 10:23:29;;;;;;;4.60;0.70;;;16.90;54.50;;;;;;5051721;28;20175;-63
2023/03/27 10:25:59;;;;;;;1.42;0.63;;;17.00;54.30;;;;;;5051195;28;20171;-63
2023/03/27 10:28:29;;;;;;;2.58;0.93;;;17.00;54.20;;;;;;5052766;28;20214;-62
2023/03/27 10:30:58;;;;;;;2.90;0.60;;;17.10;54.10;;;;;;5050538;28;20684;-64
2023/03/27 10:33:31;;;;;;;0.80;0.70;;;17.10;54.00;;;;;;5052174;28;20232;-64
2023/03/27 10:35:56;;;;;;;2.05;0.60;;;17.10;53.90;;;;;;5052025;28;20215;-63
2023/03/27 10:38:22;;;;;;;1.83;0.75;;;17.10;53.80;;;;;;5051910;28;20308;-64
2023/03/27 10:40:49;;;;;;;1.88;0.50;;;17.10;53.70;;;;;;5050225;28;20171;-62
2023/03/27 10:43:35;;;;;;;2.72;0.75;;;17.20;53.80;;;;;;5051139;28;20694;-63
2023/03/27 10:46:03;;;;;;;3.40;0.57;;;17.20;53.80;;;;;;5050789;28;20174;-63
2023/03/27 10:48:56;;;;;;;1.17;0.63;;;17.20;53.70;;;;;;5051343;28;20171;-63
2023/03/27 10:51:27;;;;;;;1.48;0.63;;;17.30;53.70;;;;;;5051295;28;20187;-63
2023/03/27 10:53:57;;;;;;;1.25;0.55;;;17.30;53.60;;;;;;5052006;28;20653;-63
2023/03/27 10:56:28;;;;;;;2.05;0.50;;;17.40;53.60;;;;;;5052574;28;20253;-64
2023/03/27 10:59:07;;;;;;;1.58;0.80;;;17.40;53.50;;;;;;5050329;28;20175;-64
2023/03/27 11:01:41;;;;;;;1.67;0.85;;;17.40;53.60;;;;;;5051351;28;20618;-64
2023/03/27 11:04:09;;;;;;;2.83;0.88;;;17.40;53.50;;;;;;5050716;28;20633;-63
2023/03/27 11:06:37;;;;;;;1.25;0.80;;;17.40;53.50;;;;;;5051423;28;20257;-64
2023/03/27 11:09:14;;;;;;;1.33;0.80;;;17.50;53.50;;;;;;5050329;28;20182;-64
2023/03/27 11:11:46;;;;;;;2.92;0.70;;;17.50;53.50;;;;;;5052294;28;20266;-63
2023/03/27 11:14:19;;;;;;;1.88;0.63;;;17.40;53.50;;;;;;5050375;28;20211;-63
2023/03/27 11:16:46;;;;;;;2.47;0.80;;;17.40;53.50;;;;;;5051836;28;20303;-62
2023/03/27 11:19:32;;;;;;;2.47;0.80;;;17.30;53.60;;;;;;5050830;28;20309;-62
2023/03/27 11:22:01;;;;;;;1.25;0.57;;;17.20;53.60;;;;;;5050057;28;20182;-61
2023/03/27 11:24:37;;;;;;;1.60;0.73;;;17.30;53.60;;;;;;5051101;28;20186;-62
2023/03/27 11:27:26;;;;;;;2.15;0.50;;;17.30;53.50;;;;;;5049955;28;20476;-63
2023/03/27 11:30:07;;;;;;;1.92;0.80;;;17.30;53.40;;;;;;5051866;28;20175;-63
2023/03/27 11:33:11;;;;;;;0.75;0.75;;;17.30;53.60;;;;;;5051961;28;20584;-64
2023/03/27 11:35:58;;;;;;;3.65;0.70;;;17.10;54.30;;;;;;5043205;28;20348;-63
2023/03/27 11:38:35;;;;;;;1.35;0.70;;;17.00;53.70;;;;;;5050596;28;20187;-62
2023/03/27 11:41:00;;;;;;;1.33;0.80;;;16.90;53.80;;;;;;5051156;28;20175;-62
2023/03/27 11:43:26;;;;;;;1.67;0.77;;;16.90;53.90;;;;;;5051949;28;20175;-62
2023/03/27 11:45:51;;;;;;;2.10;0.70;;;16.80;53.90;;;;;;5051920;28;20229;-62
2023/03/27 11:48:41;;;;;;;2.72;0.80;;;16.80;54.10;;;;;;5051193;28;20171;-62
2023/03/27 11:51:32;;;;;;;1.20;0.60;;;16.80;54.20;;;;;;5050879;28;20261;-61
2023/03/27 11:53:58;;;;;;;2.00;0.85;;;16.70;54.20;;;;;;5051583;28;20285;-62
2023/03/27 11:56:51;;;;;;;1.33;0.57;;;16.70;54.10;;;;;;5051196;28;20254;-62
2023/03/27 11:59:27;;;;;;;1.70;0.93;;;16.90;53.90;;;;;;5051014;28;20202;-63
2023/03/27 12:02:12;;;;;;;1.70;0.82;;;17.00;53.70;;;;;;5049746;28;20205;-63
2023/03/27 12:05:00;;;;;;;2.53;0.70;;;17.10;53.50;;;;;;5050684;28;20246;-63
2023/03/27 12:08:03;;;;;;;1.00;0.68;;;17.10;53.40;;;;;;5050637;28;20229;-62
2023/03/27 12:10:32;;;;;;;2.63;0.70;;;17.20;53.30;;;;;;5051008;28;20174;-62
2023/03/27 12:13:30;;;;;;;2.38;1.05;;;17.30;53.20;;;;;;5051468;28;20186;-62
2023/03/27 12:16:11;;;;;;;0.98;0.57;;;17.30;53.00;;;;;;5049375;28;20214;-62
2023/03/27 12:18:47;;;;;;;1.75;0.70;;;17.30;52.90;;;;;;5050388;28;20237;-62
2023/03/27 12:21:42;;;;;;;1.00;0.60;;;17.20;53.00;;;;;;5059718;28;20249;-62
2023/03/27 12:24:14;;;;;;;0.90;0.52;;;17.10;53.20;;;;;;5064554;28;20175;-61
2023/03/27 12:27:13;;;;;;;1.23;0.60;;;17.00;53.40;;;;;;5055522;28;20250;-62
2023/03/27 12:30:03;;;;;;;2.53;0.73;;;17.00;53.60;;;;;;5042066;28;20191;-62
2023/03/27 12:32:47;;;;;;;1.55;0.82;;;17.10;53.40;;;;;;5055341;28;20262;-63
2023/03/27 12:35:17;;;;;;;1.10;0.65;;;17.00;53.30;;;;;;5053850;28;20214;-62
2023/03/27 12:37:47;;;;;;;1.40;0.70;;;16.90;53.40;;;;;;5069738;28;20193;-62
2023/03/27 12:40:31;;;;;;;2.65;0.75;;;16.90;53.50;;;;;;5073604;28;20177;-62
2023/03/27 12:43:32;;;;;;;2.80;0.90;;;16.80;53.50;;;;;;5074814;28;20182;-62
2023/03/27 12:46:14;;;;;;;1.80;0.52;;;16.80;53.50;;;;;;5073944;28;20208;-62
2023/03/27 12:48:57;;;;;;;2.85;1.17;;;16.70;53.40;;;;;;5074721;28;20648;-62
2023/03/27 12:51:37;;;;;;;1.48;0.80;;;16.70;53.40;;;;;;5072776;28;20206;-62
2023/03/27 12:54:13;;;;;;;1.17;0.82;;;16.60;53.40;;;;;;5064809;28;20218;-60
2023/03/27 12:56:39;;;;;;;2.25;0.85;;;16.60;53.30;;;;;;5054779;28;20179;-62
2023/03/27 12:59:22;;;;;;;1.67;0.77;;;16.60;53.30;;;;;;5036134;28;20179;-63
2023/03/27 13:02:02;;;;;;;1.63;0.65;;;16.50;53.30;;;;;;5053093;28;20645;-63
2023/03/27 13:04:48;;;;;;;1.33;0.70;;;16.50;53.40;;;;;;5053360;28;20236;-62
2023/03/27 13:07:36;;;;;;;1.17;0.50;;;16.40;53.30;;;;;;5053687;28;20664;-62
2023/03/27 13:10:23;;;;;;;2.28;0.70;;;16.40;53.20;;;;;;5053349;28;20191;-60